Time,TemperatureF,DewpointF,PressureIn,WindDirection,WindDirectionDegrees,WindSpeedMPH,WindSpeedGustMPH,Humidity,HourlyPrecipIn,Conditions,Clouds,dailyrainin,SoftwareType,DateUTC
2013-04-02 00:01:00,43.7,40.1,28.56,NE,45,15.0,23.0,87,0.00,,,0.04,meteohub,2013-04-02 05:01:00,
2013-04-02 00:05:00,43.5,39.9,28.56,North,0,14.0,23.0,87,0.00,,,0.04,meteohub,2013-04-02 05:05:00,
2013-04-02 00:11:00,43.5,40.3,28.56,North,0,15.0,21.0,88,0.00,,,0.04,meteohub,2013-04-02 05:11:00,
2013-04-02 00:16:00,43.3,40.1,28.55,North,0,18.0,20.0,88,0.00,,,0.04,meteohub,2013-04-02 05:16:00,
2013-04-02 00:21:00,43.3,40.1,28.56,NE,45,17.0,19.0,88,0.00,,,0.04,meteohub,2013-04-02 05:21:00,
2013-04-02 00:26:00,43.3,39.7,28.56,NE,45,19.0,23.0,87,0.00,,,0.04,meteohub,2013-04-02 05:26:00,
2013-04-02 00:31:00,43.2,39.9,28.56,North,0,12.0,23.0,88,0.00,,,0.04,meteohub,2013-04-02 05:31:00,
2013-04-02 00:36:00,43.5,40.3,28.55,NE,45,11.0,23.0,88,0.00,,,0.04,meteohub,2013-04-02 05:36:00,
2013-04-02 00:41:00,43.2,39.6,28.55,North,0,15.0,21.0,87,0.00,,,0.04,meteohub,2013-04-02 05:41:00,
2013-04-02 00:46:00,43.3,39.7,28.55,NE,45,20.0,21.0,87,0.00,,,0.04,meteohub,2013-04-02 05:46:00,
2013-04-02 00:51:00,43.2,39.6,28.55,NE,45,17.0,21.0,87,0.00,,,0.04,meteohub,2013-04-02 05:51:00,
2013-04-02 00:56:00,43.0,39.4,28.56,NE,45,14.0,21.0,87,0.00,,,0.04,meteohub,2013-04-02 05:56:00,
2013-04-02 01:01:00,42.6,39.0,28.56,East,90,19.0,21.0,87,0.00,,,0.04,meteohub,2013-04-02 06:01:00,
2013-04-02 01:06:00,42.8,39.2,28.56,NE,45,11.0,23.0,87,0.00,,,0.04,meteohub,2013-04-02 06:06:00,
2013-04-02 01:11:00,43.0,39.0,28.55,NE,45,21.0,23.0,86,0.00,,,0.04,meteohub,2013-04-02 06:11:00,
2013-04-02 01:16:00,42.8,38.8,28.55,North,0,17.0,23.0,86,0.00,,,0.04,meteohub,2013-04-02 06:16:00,
2013-04-02 01:21:00,42.8,38.7,28.56,NE,45,18.0,23.0,85,0.00,,,0.04,meteohub,2013-04-02 06:21:00,
2013-04-02 01:26:00,42.8,38.7,28.56,North,0,23.0,23.0,85,0.00,,,0.04,meteohub,2013-04-02 06:26:00,
2013-04-02 01:31:00,42.6,38.5,28.56,North,0,17.0,23.0,85,0.00,,,0.04,meteohub,2013-04-02 06:31:00,
2013-04-02 01:36:00,42.6,38.5,28.56,North,0,13.0,23.0,85,0.00,,,0.04,meteohub,2013-04-02 06:36:00,
2013-04-02 01:41:00,42.4,38.3,28.56,NE,45,25.0,25.0,85,0.00,,,0.04,meteohub,2013-04-02 06:41:00,
2013-04-02 01:46:00,42.6,38.1,28.56,North,0,20.0,25.0,84,0.00,,,0.04,meteohub,2013-04-02 06:46:00,
2013-04-02 01:51:00,42.6,38.1,28.56,NE,45,17.0,25.0,84,0.00,,,0.04,meteohub,2013-04-02 06:51:00,
2013-04-02 01:56:00,42.4,37.9,28.55,North,0,11.0,25.0,84,0.00,,,0.04,meteohub,2013-04-02 06:56:00,
2013-04-02 02:02:00,42.6,37.8,28.56,North,0,18.0,26.0,83,0.00,,,0.04,meteohub,2013-04-02 07:02:00,
2013-04-02 02:07:00,42.6,37.8,28.56,NE,45,10.0,26.0,83,0.00,,,0.04,meteohub,2013-04-02 07:07:00,
2013-04-02 02:12:00,42.6,37.8,28.56,North,0,20.0,26.0,83,0.00,,,0.04,meteohub,2013-04-02 07:12:00,
2013-04-02 02:17:00,42.6,37.6,28.56,North,0,22.0,23.0,82,0.00,,,0.04,meteohub,2013-04-02 07:17:00,
2013-04-02 02:22:00,42.4,37.4,28.56,North,0,14.0,32.0,82,0.00,,,0.04,meteohub,2013-04-02 07:22:00,
2013-04-02 02:27:00,42.6,37.2,28.56,North,0,16.0,32.0,81,0.00,,,0.04,meteohub,2013-04-02 07:27:00,
2013-04-02 02:32:00,42.4,37.0,28.56,NE,45,11.0,32.0,81,0.00,,,0.04,meteohub,2013-04-02 07:32:00,
2013-04-02 02:37:00,42.4,37.0,28.56,NE,45,16.0,25.0,81,0.00,,,0.04,meteohub,2013-04-02 07:37:00,
2013-04-02 02:42:00,42.3,36.5,28.56,NE,45,17.0,25.0,80,0.00,,,0.04,meteohub,2013-04-02 07:42:00,
2013-04-02 02:47:00,41.9,36.1,28.56,North,0,26.0,26.0,80,0.00,,,0.04,meteohub,2013-04-02 07:47:00,
2013-04-02 02:52:00,41.7,36.0,28.56,NE,45,15.0,26.0,80,0.01,,,0.05,meteohub,2013-04-02 07:52:00,
2013-04-02 02:57:00,41.5,35.8,28.56,North,0,14.0,26.0,80,0.01,,,0.05,meteohub,2013-04-02 07:57:00,
2013-04-02 03:02:00,41.5,35.8,28.57,North,0,15.0,26.0,80,0.01,,,0.05,meteohub,2013-04-02 08:02:00,
2013-04-02 03:07:00,41.7,35.8,28.56,NE,45,19.0,24.0,79,0.01,,,0.05,meteohub,2013-04-02 08:07:00,
2013-04-02 03:12:00,41.5,35.6,28.56,North,0,14.0,26.0,79,0.01,,,0.05,meteohub,2013-04-02 08:12:00,
2013-04-02 03:18:00,41.4,35.1,28.57,North,0,17.0,26.0,78,0.01,,,0.05,meteohub,2013-04-02 08:18:00,
2013-04-02 03:23:00,41.7,35.4,28.57,North,0,18.0,26.0,78,0.01,,,0.05,meteohub,2013-04-02 08:23:00,
2013-04-02 03:28:00,41.7,35.1,28.57,NE,45,17.0,23.0,77,0.01,,,0.05,meteohub,2013-04-02 08:28:00,
2013-04-02 03:33:00,41.5,34.9,28.56,NE,45,16.0,23.0,77,0.01,,,0.05,meteohub,2013-04-02 08:33:00,
2013-04-02 03:38:00,42.1,35.4,28.56,North,0,19.0,21.0,77,0.01,,,0.05,meteohub,2013-04-02 08:38:00,
2013-04-02 03:43:00,41.9,35.2,28.56,NE,45,19.0,22.0,77,0.01,,,0.05,meteohub,2013-04-02 08:43:00,
2013-04-02 03:48:00,41.7,35.1,28.57,NE,45,13.0,27.0,77,0.01,,,0.05,meteohub,2013-04-02 08:48:00,
2013-04-02 03:53:00,41.7,35.1,28.57,NE,45,16.0,27.0,77,0.00,,,0.05,meteohub,2013-04-02 08:53:00,
2013-04-02 03:58:00,41.2,34.9,28.56,SSE,158,17.0,27.0,78,0.00,,,0.05,meteohub,2013-04-02 08:58:00,
2013-04-02 04:03:00,41.4,35.1,28.56,NE,45,13.0,21.0,78,0.00,,,0.05,meteohub,2013-04-02 09:03:00,
2013-04-02 04:08:00,41.2,35.2,28.56,NE,45,17.0,24.0,79,0.00,,,0.05,meteohub,2013-04-02 09:08:00,
2013-04-02 04:13:00,41.2,35.2,28.56,NNW,338,19.0,24.0,79,0.00,,,0.05,meteohub,2013-04-02 09:13:00,
2013-04-02 04:18:00,41.2,35.4,28.57,NNW,338,15.0,24.0,80,0.00,,,0.05,meteohub,2013-04-02 09:18:00,
2013-04-02 04:23:00,41.0,35.2,28.57,NE,45,17.0,21.0,80,0.00,,,0.05,meteohub,2013-04-02 09:23:00,
2013-04-02 04:28:00,41.0,35.2,28.56,NE,45,20.0,22.0,80,0.00,,,0.05,meteohub,2013-04-02 09:28:00,
2013-04-02 04:33:00,40.8,35.4,28.57,East,90,17.0,22.0,81,0.00,,,0.05,meteohub,2013-04-02 09:33:00,
2013-04-02 04:38:00,40.6,35.2,28.57,NE,45,17.0,21.0,81,0.00,,,0.05,meteohub,2013-04-02 09:38:00,
2013-04-02 04:43:00,40.6,35.6,28.56,North,0,19.0,21.0,82,0.00,,,0.05,meteohub,2013-04-02 09:43:00,
2013-04-02 04:48:00,40.5,35.8,28.56,WSW,248,13.0,21.0,83,0.00,,,0.05,meteohub,2013-04-02 09:48:00,
2013-04-02 04:53:00,40.3,35.6,28.56,North,0,15.0,21.0,83,0.00,,,0.05,meteohub,2013-04-02 09:53:00,
2013-04-02 04:58:00,40.1,35.4,28.55,NE,45,22.0,22.0,83,0.00,,,0.05,meteohub,2013-04-02 09:58:00,
2013-04-02 05:03:00,39.9,35.4,28.55,North,0,17.0,23.0,84,0.00,,,0.05,meteohub,2013-04-02 10:03:00,
2013-04-02 05:08:00,39.9,35.4,28.56,North,0,18.0,27.0,84,0.00,,,0.05,meteohub,2013-04-02 10:08:00,
2013-04-02 05:13:00,39.7,35.2,28.56,NE,45,19.0,27.0,84,0.00,,,0.05,meteohub,2013-04-02 10:13:00,
2013-04-02 05:18:00,39.6,35.4,28.56,WNW,293,16.0,27.0,85,0.00,,,0.05,meteohub,2013-04-02 10:18:00,
2013-04-02 05:24:00,39.6,35.1,28.55,NE,45,21.0,27.0,84,0.00,,,0.05,meteohub,2013-04-02 10:24:00,
2013-04-02 05:29:00,39.7,35.2,28.55,North,0,22.0,27.0,84,0.00,,,0.05,meteohub,2013-04-02 10:29:00,
2013-04-02 05:34:00,39.6,35.1,28.55,NE,45,26.0,26.0,84,0.00,,,0.05,meteohub,2013-04-02 10:34:00,
2013-04-02 05:39:00,39.7,35.1,28.54,NE,45,17.0,26.0,83,0.00,,,0.05,meteohub,2013-04-02 10:39:00,
2013-04-02 05:44:00,39.7,35.1,28.55,NE,45,17.0,26.0,83,0.00,,,0.05,meteohub,2013-04-02 10:44:00,
2013-04-02 05:49:00,39.6,34.9,28.56,NE,45,15.0,26.0,83,0.00,,,0.05,meteohub,2013-04-02 10:49:00,
2013-04-02 05:54:00,39.7,34.7,28.56,NE,45,14.0,22.0,82,0.00,,,0.05,meteohub,2013-04-02 10:54:00,
2013-04-02 05:59:00,39.9,34.9,28.57,North,0,12.0,22.0,82,0.00,,,0.05,meteohub,2013-04-02 10:59:00,
2013-04-02 06:04:00,40.1,35.1,28.58,NE,45,21.0,24.0,82,0.00,,,0.05,meteohub,2013-04-02 11:04:00,
2013-04-02 06:09:00,39.9,34.9,28.57,NE,45,20.0,24.0,82,0.00,,,0.05,meteohub,2013-04-02 11:09:00,
2013-04-02 06:14:00,40.1,35.1,28.57,North,0,11.0,24.0,82,0.00,,,0.05,meteohub,2013-04-02 11:14:00,
2013-04-02 06:19:00,40.1,35.4,28.57,NE,45,10.0,21.0,83,0.00,,,0.05,meteohub,2013-04-02 11:19:00,
2013-04-02 06:24:00,40.5,35.8,28.57,NE,45,13.0,21.0,83,0.00,,,0.05,meteohub,2013-04-02 11:24:00,
2013-04-02 06:29:00,40.5,35.8,28.58,NW,315,8.0,19.0,83,0.00,,,0.05,meteohub,2013-04-02 11:29:00,
2013-04-02 06:34:00,40.5,36.0,28.58,North,0,11.0,13.0,84,0.00,,,0.05,meteohub,2013-04-02 11:34:00,
2013-04-02 06:39:00,40.1,36.0,28.58,North,0,10.0,17.0,85,0.00,,,0.05,meteohub,2013-04-02 11:39:00,
2013-04-02 06:44:00,40.1,36.0,28.58,NE,45,13.0,17.0,85,0.00,,,0.05,meteohub,2013-04-02 11:44:00,
2013-04-02 06:49:00,39.7,35.2,28.58,NE,45,15.0,17.0,84,0.00,,,0.05,meteohub,2013-04-02 11:49:00,
2013-04-02 06:54:00,39.6,35.1,28.58,North,0,13.0,17.0,84,0.00,,,0.05,meteohub,2013-04-02 11:54:00,
2013-04-02 06:59:00,39.4,34.9,28.58,North,0,20.0,21.0,84,0.00,,,0.05,meteohub,2013-04-02 11:59:00,
2013-04-02 07:04:00,39.6,35.1,28.58,WNW,293,12.0,22.0,84,0.00,,,0.05,meteohub,2013-04-02 12:04:00,
2013-04-02 07:09:00,39.2,34.7,28.58,NE,45,17.0,22.0,84,0.00,,,0.05,meteohub,2013-04-02 12:09:00,
2013-04-02 07:14:00,39.2,34.5,28.59,North,0,19.0,23.0,83,0.00,,,0.05,meteohub,2013-04-02 12:14:00,
2013-04-02 07:19:00,39.4,34.7,28.59,North,0,13.0,23.0,83,0.00,,,0.05,meteohub,2013-04-02 12:19:00,
2013-04-02 07:24:00,39.4,34.7,28.59,NE,45,13.0,23.0,83,0.00,,,0.05,meteohub,2013-04-02 12:24:00,
2013-04-02 07:29:00,39.4,34.7,28.59,NE,45,21.0,21.0,83,0.00,,,0.05,meteohub,2013-04-02 12:29:00,
2013-04-02 07:34:00,39.4,34.7,28.60,NE,45,21.0,21.0,83,0.00,,,0.05,meteohub,2013-04-02 12:34:00,
2013-04-02 07:39:00,39.4,34.7,28.60,NE,45,18.0,21.0,83,0.00,,,0.05,meteohub,2013-04-02 12:39:00,
2013-04-02 07:45:00,39.2,34.7,28.60,North,0,15.0,21.0,84,0.00,,,0.05,meteohub,2013-04-02 12:45:00,
2013-04-02 07:50:00,39.0,34.5,28.60,North,0,16.0,21.0,84,0.00,,,0.05,meteohub,2013-04-02 12:50:00,
2013-04-02 07:55:00,39.0,34.3,28.61,North,0,18.0,20.0,83,0.00,,,0.05,meteohub,2013-04-02 12:55:00,
2013-04-02 08:00:00,38.8,34.2,28.61,NE,45,14.0,22.0,83,0.00,,,0.05,meteohub,2013-04-02 13:00:00,
2013-04-02 08:05:00,39.0,34.3,28.61,North,0,21.0,22.0,83,0.00,,,0.05,meteohub,2013-04-02 13:05:00,
2013-04-02 08:10:00,38.8,34.2,28.60,NE,45,23.0,23.0,83,0.00,,,0.05,meteohub,2013-04-02 13:10:00,
2013-04-02 08:15:00,39.0,34.3,28.61,North,0,8.0,23.0,83,0.00,,,0.05,meteohub,2013-04-02 13:15:00,
2013-04-02 08:20:00,39.0,34.3,28.61,North,0,16.0,23.0,83,0.00,,,0.05,meteohub,2013-04-02 13:20:00,
2013-04-02 08:25:00,39.0,34.3,28.61,NE,45,11.0,23.0,83,0.00,,,0.05,meteohub,2013-04-02 13:25:00,
2013-04-02 08:30:00,39.2,34.5,28.61,North,0,13.0,17.0,83,0.00,,,0.05,meteohub,2013-04-02 13:30:00,
2013-04-02 08:35:00,39.0,34.5,28.61,NE,45,18.0,18.0,84,0.00,,,0.05,meteohub,2013-04-02 13:35:00,
2013-04-02 08:40:00,38.8,34.3,28.61,NE,45,16.0,22.0,84,0.00,,,0.05,meteohub,2013-04-02 13:40:00,
2013-04-02 08:45:00,38.5,34.3,28.62,NE,45,12.0,22.0,85,0.00,,,0.05,meteohub,2013-04-02 13:45:00,
2013-04-02 08:50:00,38.5,34.3,28.61,NE,45,20.0,22.0,85,0.00,,,0.05,meteohub,2013-04-02 13:50:00,
2013-04-02 08:51:00,38.5,34.3,28.61,ENE,68,21.0,22.0,85,0.00,,,0.05,meteohub,2013-04-02 13:51:00,
2013-04-02 08:57:00,38.5,34.7,28.61,North,0,14.0,21.0,86,0.00,,,0.05,meteohub,2013-04-02 13:57:00,
2013-04-02 09:02:00,38.1,34.3,28.61,NE,45,17.0,21.0,86,0.00,,,0.05,meteohub,2013-04-02 14:02:00,
2013-04-02 09:07:00,38.3,34.7,28.61,North,0,16.0,21.0,87,0.00,,,0.05,meteohub,2013-04-02 14:07:00,
2013-04-02 09:12:00,38.3,34.7,28.61,North,0,18.0,21.0,87,0.00,,,0.05,meteohub,2013-04-02 14:12:00,
2013-04-02 09:17:00,38.3,35.1,28.61,North,0,22.0,22.0,88,0.00,,,0.05,meteohub,2013-04-02 14:17:00,
2013-04-02 09:22:00,38.1,35.2,28.61,NE,45,20.0,22.0,89,0.00,,,0.05,meteohub,2013-04-02 14:22:00,
2013-04-02 09:27:00,38.3,35.4,28.61,NE,45,17.0,22.0,89,0.00,,,0.05,meteohub,2013-04-02 14:27:00,
2013-04-02 09:32:00,38.3,35.4,28.61,North,0,24.0,24.0,89,0.00,,,0.05,meteohub,2013-04-02 14:32:00,
2013-04-02 09:37:00,38.1,35.4,28.61,NE,45,15.0,24.0,90,0.00,,,0.05,meteohub,2013-04-02 14:37:00,
2013-04-02 09:42:00,37.9,35.8,28.61,North,0,13.0,24.0,92,0.00,,,0.05,meteohub,2013-04-02 14:42:00,
2013-04-02 09:47:00,37.9,36.1,28.61,North,0,10.0,24.0,93,0.00,,,0.05,meteohub,2013-04-02 14:47:00,
2013-04-02 09:52:00,38.1,36.3,28.61,NE,45,17.0,23.0,93,0.00,,,0.05,meteohub,2013-04-02 14:52:00,
2013-04-02 09:57:00,38.1,36.5,28.62,East,90,11.0,23.0,94,0.00,,,0.05,meteohub,2013-04-02 14:57:00,
2013-04-02 10:02:00,38.1,36.9,28.61,North,0,17.0,21.0,95,0.01,,,0.05,meteohub,2013-04-02 15:02:00,
2013-04-02 10:07:00,37.8,36.5,28.62,North,0,16.0,19.0,95,0.01,,,0.06,meteohub,2013-04-02 15:07:00,
2013-04-02 10:12:00,37.6,36.5,28.62,NE,45,16.0,17.0,96,0.01,,,0.06,meteohub,2013-04-02 15:12:00,
2013-04-02 10:17:00,37.8,36.7,28.61,North,0,13.0,20.0,96,0.01,,,0.06,meteohub,2013-04-02 15:17:00,
2013-04-02 10:22:00,37.8,36.7,28.62,North,0,14.0,20.0,96,0.01,,,0.06,meteohub,2013-04-02 15:22:00,
2013-04-02 10:27:00,37.6,36.5,28.62,North,0,15.0,22.0,96,0.01,,,0.06,meteohub,2013-04-02 15:27:00,
2013-04-02 10:32:00,37.6,36.9,28.62,North,0,11.0,22.0,97,0.01,,,0.06,meteohub,2013-04-02 15:32:00,
2013-04-02 10:37:00,37.6,36.9,28.62,North,0,17.0,23.0,97,0.01,,,0.06,meteohub,2013-04-02 15:37:00,
2013-04-02 10:43:00,37.6,36.9,28.62,NE,45,18.0,23.0,97,0.01,,,0.06,meteohub,2013-04-02 15:43:00,
2013-04-02 10:48:00,37.8,37.0,28.61,NE,45,15.0,23.0,97,0.01,,,0.06,meteohub,2013-04-02 15:48:00,
2013-04-02 10:53:00,37.8,37.0,28.62,NE,45,19.0,20.0,97,0.01,,,0.06,meteohub,2013-04-02 15:53:00,
2013-04-02 10:58:00,37.8,37.0,28.62,North,0,11.0,20.0,97,0.01,,,0.06,meteohub,2013-04-02 15:58:00,
2013-04-02 11:03:00,38.1,37.4,28.63,NE,45,15.0,19.0,97,0.00,,,0.06,meteohub,2013-04-02 16:03:00,
2013-04-02 11:08:00,38.1,37.4,28.64,NE,45,9.0,19.0,97,0.00,,,0.06,meteohub,2013-04-02 16:08:00,
2013-04-02 11:13:00,38.1,37.4,28.64,North,0,11.0,16.0,97,0.00,,,0.06,meteohub,2013-04-02 16:13:00,
2013-04-02 11:18:00,37.9,37.2,28.64,NW,315,8.0,15.0,97,0.00,,,0.06,meteohub,2013-04-02 16:18:00,
2013-04-02 11:23:00,38.1,37.4,28.64,NW,315,5.0,16.0,97,0.00,,,0.06,meteohub,2013-04-02 16:23:00,
2013-04-02 11:28:00,38.1,37.4,28.64,NW,315,11.0,16.0,97,0.00,,,0.06,meteohub,2013-04-02 16:28:00,
2013-04-02 11:33:00,38.1,37.6,28.63,North,0,15.0,16.0,98,0.00,,,0.06,meteohub,2013-04-02 16:33:00,
2013-04-02 11:39:00,37.9,37.4,28.63,North,0,8.0,15.0,98,0.00,,,0.06,meteohub,2013-04-02 16:39:00,
2013-04-02 11:44:00,38.1,37.6,28.63,NE,45,13.0,15.0,98,0.00,,,0.06,meteohub,2013-04-02 16:44:00,
2013-04-02 11:49:00,38.1,37.6,28.63,North,0,11.0,20.0,98,0.00,,,0.06,meteohub,2013-04-02 16:49:00,
2013-04-02 11:54:00,38.1,37.9,28.63,NE,45,12.0,20.0,99,0.01,,,0.07,meteohub,2013-04-02 16:54:00,
2013-04-02 11:59:00,38.3,38.1,28.63,North,0,14.0,20.0,99,0.01,,,0.07,meteohub,2013-04-02 16:59:00,
2013-04-02 12:04:00,38.5,38.3,28.64,North,0,4.0,17.0,99,0.01,,,0.07,meteohub,2013-04-02 17:04:00,
2013-04-02 12:09:00,38.5,38.3,28.63,NE,45,14.0,17.0,99,0.01,,,0.07,meteohub,2013-04-02 17:09:00,
2013-04-02 12:14:00,38.5,38.3,28.63,NE,45,12.0,17.0,99,0.01,,,0.07,meteohub,2013-04-02 17:14:00,
2013-04-02 12:19:00,38.5,38.3,28.63,North,0,12.0,17.0,99,0.01,,,0.07,meteohub,2013-04-02 17:19:00,
2013-04-02 12:25:00,38.8,38.7,28.62,NE,45,13.0,17.0,99,0.01,,,0.07,meteohub,2013-04-02 17:25:00,
2013-04-02 12:30:00,39.0,38.8,28.62,North,0,17.0,17.0,99,0.01,,,0.07,meteohub,2013-04-02 17:30:00,
2013-04-02 12:35:00,38.8,38.7,28.63,North,0,15.0,19.0,99,0.01,,,0.07,meteohub,2013-04-02 17:35:00,
2013-04-02 12:40:00,39.2,39.0,28.63,NE,45,8.0,19.0,99,0.01,,,0.07,meteohub,2013-04-02 17:40:00,
2013-04-02 12:45:00,39.0,38.8,28.62,NE,45,13.0,17.0,99,0.01,,,0.07,meteohub,2013-04-02 17:45:00,
2013-04-02 12:50:00,39.2,39.0,28.62,NE,45,14.0,17.0,99,0.00,,,0.07,meteohub,2013-04-02 17:50:00,
2013-04-02 12:55:00,39.2,39.0,28.61,NE,45,15.0,17.0,99,0.00,,,0.07,meteohub,2013-04-02 17:55:00,
2013-04-02 13:00:00,39.4,39.2,28.61,North,0,17.0,17.0,99,0.01,,,0.07,meteohub,2013-04-02 18:00:00,
2013-04-02 13:05:00,39.4,39.2,28.61,North,0,15.0,17.0,99,0.01,,,0.08,meteohub,2013-04-02 18:05:00,
2013-04-02 13:10:00,39.4,39.2,28.61,NE,45,17.0,17.0,99,0.01,,,0.08,meteohub,2013-04-02 18:10:00,
2013-04-02 13:15:00,39.4,39.2,28.61,NE,45,15.0,17.0,99,0.01,,,0.08,meteohub,2013-04-02 18:15:00,
2013-04-02 13:20:00,39.6,39.4,28.61,North,0,11.0,20.0,99,0.01,,,0.08,meteohub,2013-04-02 18:20:00,
2013-04-02 13:25:00,39.6,39.4,28.61,North,0,15.0,20.0,99,0.01,,,0.08,meteohub,2013-04-02 18:25:00,
2013-04-02 13:30:00,39.7,39.6,28.61,North,0,9.0,15.0,99,0.01,,,0.08,meteohub,2013-04-02 18:30:00,
2013-04-02 13:35:00,39.7,39.6,28.61,North,0,7.0,17.0,99,0.01,,,0.08,meteohub,2013-04-02 18:35:00,
2013-04-02 13:40:00,39.7,39.6,28.61,North,0,9.0,18.0,99,0.01,,,0.08,meteohub,2013-04-02 18:40:00,
2013-04-02 13:45:00,39.4,39.2,28.61,East,90,17.0,18.0,99,0.01,,,0.08,meteohub,2013-04-02 18:45:00,
2013-04-02 13:51:00,39.4,38.8,28.61,North,0,11.0,20.0,98,0.01,,,0.08,meteohub,2013-04-02 18:51:00,
2013-04-02 13:56:00,39.4,39.2,28.61,NE,45,12.0,20.0,99,0.01,,,0.08,meteohub,2013-04-02 18:56:00,
2013-04-02 14:01:00,39.7,39.6,28.61,NE,45,9.0,20.0,99,0.00,,,0.08,meteohub,2013-04-02 19:01:00,
2013-04-02 14:07:00,39.9,39.7,28.61,North,0,14.0,17.0,99,0.00,,,0.08,meteohub,2013-04-02 19:07:00,
2013-04-02 14:12:00,39.9,39.7,28.61,NE,45,10.0,17.0,99,0.00,,,0.08,meteohub,2013-04-02 19:12:00,
2013-04-02 14:17:00,39.9,39.4,28.61,NE,45,12.0,17.0,98,0.00,,,0.08,meteohub,2013-04-02 19:17:00,
2013-04-02 14:22:00,39.7,39.6,28.61,NE,45,11.0,20.0,99,0.00,,,0.08,meteohub,2013-04-02 19:22:00,
2013-04-02 14:27:00,39.9,39.7,28.60,North,0,17.0,20.0,99,0.00,,,0.08,meteohub,2013-04-02 19:27:00,
2013-04-02 14:32:00,39.9,39.7,28.60,NE,45,11.0,20.0,99,0.00,,,0.08,meteohub,2013-04-02 19:32:00,
2013-04-02 14:37:00,40.1,39.9,28.60,NE,45,11.0,17.0,99,0.00,,,0.08,meteohub,2013-04-02 19:37:00,
2013-04-02 14:43:00,39.9,39.7,28.59,North,0,19.0,19.0,99,0.00,,,0.08,meteohub,2013-04-02 19:43:00,
2013-04-02 14:48:00,40.3,40.1,28.59,WNW,293,11.0,19.0,99,0.00,,,0.08,meteohub,2013-04-02 19:48:00,
2013-04-02 14:54:00,40.3,40.1,28.59,North,0,12.0,19.0,99,0.00,,,0.08,meteohub,2013-04-02 19:54:00,
2013-04-02 14:59:00,40.1,39.9,28.59,North,0,12.0,19.0,99,0.00,,,0.08,meteohub,2013-04-02 19:59:00,
2013-04-02 15:04:00,40.3,40.1,28.59,NE,45,13.0,17.0,99,0.00,,,0.08,meteohub,2013-04-02 20:04:00,
2013-04-02 15:09:00,40.3,40.1,28.59,North,0,11.0,17.0,99,0.00,,,0.08,meteohub,2013-04-02 20:09:00,
2013-04-02 15:14:00,40.3,40.1,28.59,NE,45,16.0,17.0,99,0.00,,,0.08,meteohub,2013-04-02 20:14:00,
2013-04-02 15:19:00,40.3,40.1,28.59,North,0,16.0,19.0,99,0.00,,,0.08,meteohub,2013-04-02 20:19:00,
2013-04-02 15:24:00,40.3,40.1,28.59,North,0,8.0,20.0,99,0.00,,,0.08,meteohub,2013-04-02 20:24:00,
2013-04-02 15:29:00,40.6,40.1,28.59,NE,45,16.0,20.0,98,0.00,,,0.08,meteohub,2013-04-02 20:29:00,
2013-04-02 15:34:00,40.5,39.7,28.59,North,0,21.0,21.0,97,0.00,,,0.08,meteohub,2013-04-02 20:34:00,
2013-04-02 15:39:00,40.5,39.9,28.58,East,90,17.0,21.0,98,0.00,,,0.08,meteohub,2013-04-02 20:39:00,
2013-04-02 15:44:00,40.5,39.9,28.58,North,0,14.0,21.0,98,0.00,,,0.08,meteohub,2013-04-02 20:44:00,
2013-04-02 15:49:00,40.6,40.1,28.58,North,0,10.0,21.0,98,0.00,,,0.08,meteohub,2013-04-02 20:49:00,
2013-04-02 15:54:00,40.6,40.1,28.58,NE,45,13.0,21.0,98,0.00,,,0.08,meteohub,2013-04-02 20:54:00,
2013-04-02 15:59:00,40.6,39.9,28.58,NE,45,14.0,17.0,97,0.00,,,0.08,meteohub,2013-04-02 20:59:00,
2013-04-02 16:04:00,40.6,39.9,28.57,North,0,14.0,17.0,97,0.00,,,0.08,meteohub,2013-04-02 21:04:00,
2013-04-02 16:09:00,40.5,39.7,28.58,NE,45,15.0,17.0,97,0.00,,,0.08,meteohub,2013-04-02 21:09:00,
2013-04-02 16:14:00,40.8,40.1,28.57,North,0,9.0,21.0,97,0.00,,,0.08,meteohub,2013-04-02 21:14:00,
2013-04-02 16:20:00,40.6,39.9,28.57,NE,45,9.0,21.0,97,0.00,,,0.08,meteohub,2013-04-02 21:20:00,
2013-04-02 16:25:00,41.0,40.3,28.56,NE,45,19.0,20.0,97,0.00,,,0.08,meteohub,2013-04-02 21:25:00,
2013-04-02 16:30:00,41.0,40.3,28.56,NW,315,14.0,20.0,97,0.00,,,0.08,meteohub,2013-04-02 21:30:00,
2013-04-02 16:35:00,41.0,40.3,28.57,East,90,15.0,20.0,97,0.00,,,0.08,meteohub,2013-04-02 21:35:00,
2013-04-02 16:40:00,40.8,40.1,28.57,NE,45,8.0,19.0,97,0.00,,,0.08,meteohub,2013-04-02 21:40:00,
2013-04-02 16:45:00,40.8,40.1,28.57,NE,45,13.0,19.0,97,0.00,,,0.08,meteohub,2013-04-02 21:45:00,
2013-04-02 16:50:00,41.0,40.5,28.57,NE,45,9.0,19.0,98,0.00,,,0.08,meteohub,2013-04-02 21:50:00,
2013-04-02 16:55:00,40.8,40.3,28.57,NE,45,15.0,19.0,98,0.00,,,0.08,meteohub,2013-04-02 21:55:00,
2013-04-02 17:00:00,40.6,40.1,28.57,North,0,17.0,21.0,98,0.00,,,0.08,meteohub,2013-04-02 22:00:00,
2013-04-02 17:05:00,40.3,39.7,28.57,North,0,19.0,23.0,98,0.00,,,0.08,meteohub,2013-04-02 22:05:00,
2013-04-02 17:10:00,40.3,39.7,28.58,North,0,10.0,23.0,98,0.00,,,0.08,meteohub,2013-04-02 22:10:00,
2013-04-02 17:15:00,40.3,40.1,28.56,North,0,17.0,23.0,99,0.00,,,0.08,meteohub,2013-04-02 22:15:00,
2013-04-02 17:20:00,40.5,40.3,28.56,NE,45,14.0,23.0,99,0.00,,,0.08,meteohub,2013-04-02 22:20:00,
2013-04-02 17:26:00,40.6,40.5,28.56,NE,45,19.0,21.0,99,0.00,,,0.08,meteohub,2013-04-02 22:26:00,
2013-04-02 17:31:00,40.5,40.3,28.57,NE,45,15.0,20.0,99,0.00,,,0.08,meteohub,2013-04-02 22:31:00,
2013-04-02 17:37:00,40.5,40.3,28.57,NE,45,18.0,20.0,99,0.00,,,0.08,meteohub,2013-04-02 22:37:00,
2013-04-02 17:42:00,40.5,40.3,28.57,North,0,15.0,20.0,99,0.00,,,0.08,meteohub,2013-04-02 22:42:00,
2013-04-02 17:47:00,40.5,40.3,28.57,NE,45,11.0,18.0,99,0.00,,,0.08,meteohub,2013-04-02 22:47:00,
2013-04-02 17:52:00,40.3,40.1,28.57,NE,45,9.0,18.0,99,0.00,,,0.08,meteohub,2013-04-02 22:52:00,
2013-04-02 17:57:00,40.5,40.3,28.57,North,0,13.0,17.0,99,0.00,,,0.08,meteohub,2013-04-02 22:57:00,
2013-04-02 18:02:00,40.3,40.1,28.57,North,0,15.0,17.0,99,0.00,,,0.08,meteohub,2013-04-02 23:02:00,
2013-04-02 18:07:00,40.3,40.1,28.57,North,0,15.0,17.0,99,0.00,,,0.08,meteohub,2013-04-02 23:07:00,
2013-04-02 18:12:00,40.3,40.1,28.56,North,0,15.0,15.0,99,0.00,,,0.08,meteohub,2013-04-02 23:12:00,
2013-04-02 18:17:00,40.1,39.9,28.57,North,0,12.0,23.0,99,0.00,,,0.08,meteohub,2013-04-02 23:17:00,
2013-04-02 18:22:00,39.9,39.7,28.56,NE,45,12.0,23.0,99,0.00,,,0.08,meteohub,2013-04-02 23:22:00,
2013-04-02 18:27:00,39.9,39.7,28.57,North,0,13.0,23.0,99,0.00,,,0.08,meteohub,2013-04-02 23:27:00,
2013-04-02 18:32:00,40.1,39.9,28.56,North,0,9.0,23.0,99,0.00,,,0.08,meteohub,2013-04-02 23:32:00,
2013-04-02 18:37:00,40.1,39.9,28.56,NE,45,11.0,22.0,99,0.00,,,0.08,meteohub,2013-04-02 23:37:00,
2013-04-02 18:42:00,39.9,39.7,28.57,NE,45,14.0,22.0,99,0.00,,,0.08,meteohub,2013-04-02 23:42:00,
2013-04-02 18:47:00,39.9,39.7,28.57,North,0,21.0,21.0,99,0.00,,,0.08,meteohub,2013-04-02 23:47:00,
2013-04-02 18:52:00,39.7,39.6,28.56,North,0,19.0,21.0,99,0.00,,,0.08,meteohub,2013-04-02 23:52:00,
2013-04-02 18:57:00,39.6,39.4,28.57,North,0,15.0,21.0,99,0.00,,,0.08,meteohub,2013-04-02 23:57:00,
2013-04-02 19:02:00,39.6,39.4,28.57,North,0,17.0,21.0,99,0.00,,,0.08,meteohub,2013-04-03 00:02:00,
2013-04-02 19:08:00,39.6,39.4,28.57,NE,45,11.0,21.0,99,0.00,,,0.00,meteohub,2013-04-03 00:08:00,
2013-04-02 19:13:00,39.6,39.4,28.56,NE,45,16.0,21.0,99,0.00,,,0.00,meteohub,2013-04-03 00:13:00,
2013-04-02 19:18:00,39.6,39.4,28.56,NE,45,17.0,21.0,99,0.00,,,0.00,meteohub,2013-04-03 00:18:00,
2013-04-02 19:23:00,39.4,39.2,28.57,North,0,15.0,17.0,99,0.00,,,0.00,meteohub,2013-04-03 00:23:00,
2013-04-02 19:28:00,39.2,39.0,28.57,NE,45,18.0,22.0,99,0.00,,,0.00,meteohub,2013-04-03 00:28:00,
2013-04-02 19:33:00,39.4,39.2,28.57,SE,135,10.0,24.0,99,0.00,,,0.00,meteohub,2013-04-03 00:33:00,
2013-04-02 19:38:00,39.6,39.0,28.57,NE,45,19.0,24.0,98,0.00,,,0.00,meteohub,2013-04-03 00:38:00,
2013-04-02 19:43:00,39.4,39.2,28.57,NE,45,9.0,24.0,99,0.00,,,0.00,meteohub,2013-04-03 00:43:00,
2013-04-02 19:48:00,39.4,39.2,28.58,NE,45,14.0,22.0,99,0.00,,,0.00,meteohub,2013-04-03 00:48:00,
2013-04-02 19:53:00,39.4,39.2,28.58,NE,45,11.0,22.0,99,0.00,,,0.00,meteohub,2013-04-03 00:53:00,
2013-04-02 19:58:00,39.4,39.2,28.58,North,0,19.0,23.0,99,0.00,,,0.00,meteohub,2013-04-03 00:58:00,
2013-04-02 20:03:00,39.4,39.2,28.58,NE,45,16.0,23.0,99,0.00,,,0.00,meteohub,2013-04-03 01:03:00,
2013-04-02 20:08:00,39.2,39.0,28.58,East,90,12.0,23.0,99,0.00,,,0.00,meteohub,2013-04-03 01:08:00,
2013-04-02 20:13:00,39.2,39.0,28.59,NE,45,16.0,23.0,99,0.00,,,0.00,meteohub,2013-04-03 01:13:00,
2013-04-02 20:18:00,39.2,39.0,28.59,North,0,20.0,20.0,99,0.00,,,0.00,meteohub,2013-04-03 01:18:00,
2013-04-02 20:23:00,39.2,39.0,28.59,North,0,19.0,21.0,99,0.00,,,0.00,meteohub,2013-04-03 01:23:00,
2013-04-02 20:28:00,39.0,38.8,28.58,NE,45,16.0,21.0,99,0.00,,,0.00,meteohub,2013-04-03 01:28:00,
2013-04-02 20:33:00,38.8,38.7,28.58,North,0,16.0,21.0,99,0.00,,,0.00,meteohub,2013-04-03 01:33:00,
2013-04-02 20:38:00,39.0,38.8,28.58,North,0,22.0,22.0,99,0.00,,,0.00,meteohub,2013-04-03 01:38:00,
2013-04-02 20:43:00,38.8,38.7,28.58,NE,45,17.0,21.0,99,0.00,,,0.00,meteohub,2013-04-03 01:43:00,
2013-04-02 20:48:00,38.8,38.7,28.59,North,0,13.0,22.0,99,0.00,,,0.00,meteohub,2013-04-03 01:48:00,
2013-04-02 20:53:00,38.7,38.5,28.60,NE,45,15.0,22.0,99,0.00,,,0.00,meteohub,2013-04-03 01:53:00,
2013-04-02 20:58:00,38.8,38.7,28.60,NE,45,13.0,19.0,99,0.00,,,0.00,meteohub,2013-04-03 01:58:00,
2013-04-02 21:03:00,38.7,38.5,28.60,NE,45,14.0,18.0,99,0.00,,,0.00,meteohub,2013-04-03 02:03:00,
2013-04-02 21:08:00,38.8,38.7,28.60,NE,45,15.0,15.0,99,0.00,,,0.00,meteohub,2013-04-03 02:08:00,
2013-04-02 21:13:00,38.7,38.5,28.60,North,0,15.0,18.0,99,0.00,,,0.00,meteohub,2013-04-03 02:13:00,
2013-04-02 21:18:00,38.7,38.5,28.60,North,0,14.0,18.0,99,0.00,,,0.00,meteohub,2013-04-03 02:18:00,
2013-04-02 21:24:00,38.7,38.5,28.60,North,0,12.0,17.0,99,0.00,,,0.00,meteohub,2013-04-03 02:24:00,
2013-04-02 21:29:00,38.8,38.7,28.61,NE,45,13.0,18.0,99,0.00,,,0.00,meteohub,2013-04-03 02:29:00,
2013-04-02 21:34:00,38.7,38.5,28.60,NE,45,17.0,18.0,99,0.00,,,0.00,meteohub,2013-04-03 02:34:00,
2013-04-02 21:39:00,38.7,38.5,28.60,North,0,9.0,18.0,99,0.00,,,0.00,meteohub,2013-04-03 02:39:00,
2013-04-02 21:44:00,38.8,38.7,28.61,North,0,8.0,17.0,99,0.00,,,0.00,meteohub,2013-04-03 02:44:00,
2013-04-02 21:49:00,39.0,38.8,28.61,WNW,293,11.0,17.0,99,0.00,,,0.00,meteohub,2013-04-03 02:49:00,
2013-04-02 21:54:00,38.8,38.7,28.61,North,0,8.0,17.0,99,0.00,,,0.00,meteohub,2013-04-03 02:54:00,
2013-04-02 21:59:00,39.0,38.8,28.62,North,0,13.0,17.0,99,0.00,,,0.00,meteohub,2013-04-03 02:59:00,
2013-04-02 22:04:00,39.0,38.8,28.62,NE,45,13.0,15.0,99,0.00,,,0.00,meteohub,2013-04-03 03:04:00,
2013-04-02 22:09:00,38.8,38.7,28.61,NE,45,12.0,15.0,99,0.00,,,0.00,meteohub,2013-04-03 03:09:00,
2013-04-02 22:14:00,39.0,38.8,28.61,North,0,12.0,16.0,99,0.00,,,0.00,meteohub,2013-04-03 03:14:00,
2013-04-02 22:20:00,39.0,38.8,28.61,NE,45,11.0,16.0,99,0.00,,,0.00,meteohub,2013-04-03 03:20:00,
2013-04-02 22:25:00,39.2,39.0,28.61,NE,45,11.0,16.0,99,0.00,,,0.00,meteohub,2013-04-03 03:25:00,
2013-04-02 22:30:00,39.0,38.8,28.61,NE,45,15.0,15.0,99,0.00,,,0.00,meteohub,2013-04-03 03:30:00,
2013-04-02 22:35:00,39.0,38.8,28.61,NE,45,11.0,15.0,99,0.00,,,0.00,meteohub,2013-04-03 03:35:00,
2013-04-02 22:40:00,39.0,38.8,28.61,North,0,8.0,15.0,99,0.00,,,0.00,meteohub,2013-04-03 03:40:00,
2013-04-02 22:45:00,39.0,38.8,28.61,North,0,10.0,15.0,99,0.00,,,0.00,meteohub,2013-04-03 03:45:00,
2013-04-02 22:50:00,38.8,38.7,28.61,North,0,11.0,16.0,99,0.00,,,0.00,meteohub,2013-04-03 03:50:00,
2013-04-02 22:55:00,38.8,38.7,28.61,North,0,13.0,16.0,99,0.00,,,0.00,meteohub,2013-04-03 03:55:00,
2013-04-02 23:00:00,38.8,38.7,28.61,North,0,15.0,16.0,99,0.00,,,0.00,meteohub,2013-04-03 04:00:00,
2013-04-02 23:02:00,39.0,38.8,28.62,North,0,11.0,16.0,99,0.00,,,0.00,meteohub,2013-04-03 04:02:00,
2013-04-02 23:07:00,38.8,38.7,28.62,North,0,5.0,16.0,99,0.00,,,0.00,meteohub,2013-04-03 04:07:00,
2013-04-02 23:12:00,38.8,38.7,28.62,East,90,13.0,15.0,99,0.00,,,0.00,meteohub,2013-04-03 04:12:00,
2013-04-02 23:17:00,38.8,38.7,28.62,NW,315,11.0,15.0,99,0.00,,,0.00,meteohub,2013-04-03 04:17:00,
2013-04-02 23:22:00,38.8,38.7,28.62,North,0,5.0,14.0,99,0.00,,,0.00,meteohub,2013-04-03 04:22:00,
2013-04-02 23:27:00,38.7,38.5,28.62,North,0,16.0,16.0,99,0.00,,,0.00,meteohub,2013-04-03 04:27:00,
2013-04-02 23:32:00,38.8,38.7,28.62,NE,45,9.0,16.0,99,0.00,,,0.00,meteohub,2013-04-03 04:32:00,
2013-04-02 23:37:00,38.8,38.7,28.62,NW,315,11.0,16.0,99,0.00,,,0.00,meteohub,2013-04-03 04:37:00,
2013-04-02 23:42:00,38.7,38.5,28.62,North,0,8.0,16.0,99,0.00,,,0.00,meteohub,2013-04-03 04:42:00,
2013-04-02 23:47:00,38.7,38.5,28.62,North,0,8.0,14.0,99,0.00,,,0.00,meteohub,2013-04-03 04:47:00,
2013-04-02 23:53:00,38.8,38.7,28.62,North,0,11.0,14.0,99,0.00,,,0.00,meteohub,2013-04-03 04:53:00,
2013-04-02 23:58:00,38.7,38.5,28.62,North,0,8.0,11.0,99,0.01,,,0.01,meteohub,2013-04-03 04:58:00,